sensor_id;sensor_type;location;lat;lon;timestamp;pressure;altitude;pressure_sealevel;temperature;humidity
10135;BME280;5107;48.850;8.924;2023-04-22T00:02:00;96163.50;;;11.53;74.13
10135;BME280;5107;48.850;8.924;2023-04-22T00:04:26;96163.31;;;11.55;74.95
10135;BME280;5107;48.850;8.924;2023-04-22T00:06:52;96172.38;;;11.73;76.97
10135;BME280;5107;48.850;8.924;2023-04-22T00:09:17;96169.03;;;11.80;76.58
10135;BME280;5107;48.850;8.924;2023-04-22T00:11:42;96167.84;;;11.61;77.50
10135;BME280;5107;48.850;8.924;2023-04-22T00:14:08;96165.47;;;11.45;78.02
10135;BME280;5107;48.850;8.924;2023-04-22T00:16:33;96164.69;;;11.51;77.28
10135;BME280;5107;48.850;8.924;2023-04-22T00:18:59;96169.59;;;11.54;76.30
10135;BME280;5107;48.850;8.924;2023-04-22T00:21:24;96169.19;;;11.57;76.31
10135;BME280;5107;48.850;8.924;2023-04-22T00:23:50;96168.03;;;11.59;77.34
10135;BME280;5107;48.850;8.924;2023-04-22T00:26:15;96176.97;;;11.65;76.87
10135;BME280;5107;48.850;8.924;2023-04-22T00:28:41;96169.25;;;11.63;75.49
10135;BME280;5107;48.850;8.924;2023-04-22T00:31:06;96168.59;;;11.55;76.21
10135;BME280;5107;48.850;8.924;2023-04-22T00:33:31;96156.97;;;11.49;76.66
10135;BME280;5107;48.850;8.924;2023-04-22T00:35:57;96163.56;;;11.60;75.91
10135;BME280;5107;48.850;8.924;2023-04-22T00:38:22;96155.75;;;11.45;76.18
10135;BME280;5107;48.850;8.924;2023-04-22T00:40:48;96157.03;;;11.34;76.70
10135;BME280;5107;48.850;8.924;2023-04-22T00:43:15;96160.31;;;11.36;76.26
10135;BME280;5107;48.850;8.924;2023-04-22T00:45:41;96163.44;;;11.47;75.75
10135;BME280;5107;48.850;8.924;2023-04-22T00:48:07;96162.13;;;11.36;76.23
10135;BME280;5107;48.850;8.924;2023-04-22T00:50:32;96160.81;;;11.25;76.37
10135;BME280;5107;48.850;8.924;2023-04-22T00:52:57;96158.94;;;11.19;76.39
10135;BME280;5107;48.850;8.924;2023-04-22T00:55:23;96167.16;;;11.52;74.71
10135;BME280;5107;48.850;8.924;2023-04-22T00:57:49;96156.34;;;11.68;73.45
10135;BME280;5107;48.850;8.924;2023-04-22T01:00:16;96155.22;;;11.77;71.53
10135;BME280;5107;48.850;8.924;2023-04-22T01:02:42;96149.88;;;11.71;71.96
10135;BME280;5107;48.850;8.924;2023-04-22T01:05:08;96153.06;;;11.66;72.16
10135;BME280;5107;48.850;8.924;2023-04-22T01:07:34;96154.13;;;11.72;73.39
10135;BME280;5107;48.850;8.924;2023-04-22T01:10:01;96156.97;;;11.70;73.81
10135;BME280;5107;48.850;8.924;2023-04-22T01:12:26;96146.03;;;11.73;73.59
10135;BME280;5107;48.850;8.924;2023-04-22T01:14:51;96149.16;;;11.77;73.43
10135;BME280;5107;48.850;8.924;2023-04-22T01:17:17;96147.03;;;11.72;72.94
10135;BME280;5107;48.850;8.924;2023-04-22T01:19:43;96147.16;;;11.64;73.55
10135;BME280;5107;48.850;8.924;2023-04-22T01:22:11;96146.16;;;11.65;73.75
10135;BME280;5107;48.850;8.924;2023-04-22T01:24:37;96140.09;;;11.65;72.98
10135;BME280;5107;48.850;8.924;2023-04-22T01:27:02;96150.22;;;11.61;73.13
10135;BME280;5107;48.850;8.924;2023-04-22T01:29:28;96150.22;;;11.61;72.91
10135;BME280;5107;48.850;8.924;2023-04-22T01:31:54;96156.66;;;11.59;72.28
10135;BME280;5107;48.850;8.924;2023-04-22T01:34:20;96155.47;;;11.61;71.63
10135;BME280;5107;48.850;8.924;2023-04-22T01:36:46;96156.28;;;11.62;70.27
10135;BME280;5107;48.850;8.924;2023-04-22T01:39:11;96149.06;;;11.70;70.52
10135;BME280;5107;48.850;8.924;2023-04-22T01:41:36;96143.47;;;11.59;71.02
10135;BME280;5107;48.850;8.924;2023-04-22T01:44:02;96148.44;;;11.47;71.90
10135;BME280;5107;48.850;8.924;2023-04-22T01:46:28;96150.97;;;11.34;74.24
10135;BME280;5107;48.850;8.924;2023-04-22T01:48:54;96158.34;;;11.24;75.27
10135;BME280;5107;48.850;8.924;2023-04-22T01:51:19;96155.09;;;11.22;74.98
10135;BME280;5107;48.850;8.924;2023-04-22T01:53:46;96154.09;;;11.44;72.59
10135;BME280;5107;48.850;8.924;2023-04-22T01:56:11;96154.75;;;11.46;72.93
10135;BME280;5107;48.850;8.924;2023-04-22T01:58:38;96153.16;;;11.30;72.71
10135;BME280;5107;48.850;8.924;2023-04-22T02:01:03;96153.72;;;11.26;73.34
10135;BME280;5107;48.850;8.924;2023-04-22T02:03:28;96154.47;;;11.20;73.94
10135;BME280;5107;48.850;8.924;2023-04-22T02:05:54;96160.22;;;11.09;73.91
10135;BME280;5107;48.850;8.924;2023-04-22T02:08:19;96156.72;;;11.01;74.44
10135;BME280;5107;48.850;8.924;2023-04-22T02:10:44;96156.91;;;11.00;74.63
10135;BME280;5107;48.850;8.924;2023-04-22T02:13:09;96155.66;;;10.96;74.84
10135;BME280;5107;48.850;8.924;2023-04-22T02:15:35;96151.94;;;10.90;75.41
10135;BME280;5107;48.850;8.924;2023-04-22T02:18:00;96151.84;;;10.84;75.04
10135;BME280;5107;48.850;8.924;2023-04-22T02:20:26;96152.44;;;10.79;75.74
10135;BME280;5107;48.850;8.924;2023-04-22T02:22:51;96146.88;;;10.74;75.97
10135;BME280;5107;48.850;8.924;2023-04-22T02:25:17;96152.16;;;10.74;76.06
10135;BME280;5107;48.850;8.924;2023-04-22T02:27:42;96149.78;;;10.79;75.25
10135;BME280;5107;48.850;8.924;2023-04-22T02:30:08;96153.84;;;10.82;75.22
10135;BME280;5107;48.850;8.924;2023-04-22T02:32:34;96159.19;;;10.88;74.69
10135;BME280;5107;48.850;8.924;2023-04-22T02:35:01;96150.41;;;10.81;75.80
10135;BME280;5107;48.850;8.924;2023-04-22T02:37:27;96156.50;;;10.67;77.30
10135;BME280;5107;48.850;8.924;2023-04-22T02:39:52;96156.63;;;10.59;77.54
10135;BME280;5107;48.850;8.924;2023-04-22T02:42:18;96152.34;;;10.58;76.65
10135;BME280;5107;48.850;8.924;2023-04-22T02:44:43;96154.88;;;10.66;75.96
10135;BME280;5107;48.850;8.924;2023-04-22T02:47:08;96148.75;;;10.80;74.23
10135;BME280;5107;48.850;8.924;2023-04-22T02:49:34;96150.09;;;10.91;73.58
10135;BME280;5107;48.850;8.924;2023-04-22T02:51:59;96142.66;;;10.94;73.44
10135;BME280;5107;48.850;8.924;2023-04-22T02:54:24;96139.84;;;10.96;73.29
10135;BME280;5107;48.850;8.924;2023-04-22T02:56:49;96148.19;;;10.99;73.58
10135;BME280;5107;48.850;8.924;2023-04-22T02:59:15;96143.91;;;10.98;73.43
10135;BME280;5107;48.850;8.924;2023-04-22T03:01:40;96144.91;;;10.97;73.19
10135;BME280;5107;48.850;8.924;2023-04-22T03:04:05;96147.75;;;10.96;73.22
10135;BME280;5107;48.850;8.924;2023-04-22T03:06:31;96138.22;;;10.95;72.95
10135;BME280;5107;48.850;8.924;2023-04-22T03:08:56;96142.66;;;10.94;73.30
10135;BME280;5107;48.850;8.924;2023-04-22T03:11:22;96150.56;;;10.94;73.37
10135;BME280;5107;48.850;8.924;2023-04-22T03:13:47;96143.66;;;10.93;73.48
10135;BME280;5107;48.850;8.924;2023-04-22T03:16:12;96144.41;;;10.87;74.12
10135;BME280;5107;48.850;8.924;2023-04-22T03:18:38;96147.94;;;10.80;74.46
10135;BME280;5107;48.850;8.924;2023-04-22T03:21:03;96142.31;;;10.83;74.15
10135;BME280;5107;48.850;8.924;2023-04-22T03:23:28;96154.50;;;10.84;74.53
10135;BME280;5107;48.850;8.924;2023-04-22T03:25:54;96154.94;;;10.87;73.43
10135;BME280;5107;48.850;8.924;2023-04-22T03:28:19;96165.25;;;10.89;74.31
10135;BME280;5107;48.850;8.924;2023-04-22T03:30:45;96162.50;;;10.76;75.49
10135;BME280;5107;48.850;8.924;2023-04-22T03:33:11;96172.31;;;10.67;76.67
10135;BME280;5107;48.850;8.924;2023-04-22T03:35:36;96175.28;;;10.64;76.36
10135;BME280;5107;48.850;8.924;2023-04-22T03:38:02;96173.13;;;10.68;76.13
10135;BME280;5107;48.850;8.924;2023-04-22T03:40:27;96162.94;;;10.64;76.22
10135;BME280;5107;48.850;8.924;2023-04-22T03:42:52;96167.84;;;10.68;76.49
10135;BME280;5107;48.850;8.924;2023-04-22T03:45:18;96167.94;;;10.74;75.33
10135;BME280;5107;48.850;8.924;2023-04-22T03:47:43;96159.50;;;10.79;75.19
10135;BME280;5107;48.850;8.924;2023-04-22T03:50:09;96162.75;;;10.81;74.79
10135;BME280;5107;48.850;8.924;2023-04-22T03:52:35;96159.28;;;10.80;74.82
10135;BME280;5107;48.850;8.924;2023-04-22T03:55:00;96155.06;;;10.79;75.31
10135;BME280;5107;48.850;8.924;2023-04-22T03:57:26;96150.69;;;10.72;75.67
10135;BME280;5107;48.850;8.924;2023-04-22T03:59:51;96157.63;;;10.58;76.58
10135;BME280;5107;48.850;8.924;2023-04-22T04:02:16;96161.09;;;10.44;76.96
10135;BME280;5107;48.850;8.924;2023-04-22T04:04:42;96157.56;;;10.37;77.72
10135;BME280;5107;48.850;8.924;2023-04-22T04:07:07;96151.09;;;10.39;77.73
10135;BME280;5107;48.850;8.924;2023-04-22T04:09:32;96162.72;;;10.45;77.37
10135;BME280;5107;48.850;8.924;2023-04-22T04:11:58;96155.16;;;10.56;76.39
10135;BME280;5107;48.850;8.924;2023-04-22T04:14:23;96149.72;;;10.58;76.39
10135;BME280;5107;48.850;8.924;2023-04-22T04:16:48;96150.22;;;10.83;80.67
10135;BME280;5107;48.850;8.924;2023-04-22T04:19:14;96159.81;;;11.26;81.04
10135;BME280;5107;48.850;8.924;2023-04-22T04:21:39;96160.63;;;11.27;80.71
10135;BME280;5107;48.850;8.924;2023-04-22T04:24:05;96162.13;;;11.36;80.89
10135;BME280;5107;48.850;8.924;2023-04-22T04:26:31;96156.19;;;11.27;80.32
10135;BME280;5107;48.850;8.924;2023-04-22T04:28:58;96159.16;;;11.03;77.56
10135;BME280;5107;48.850;8.924;2023-04-22T04:31:23;96156.84;;;10.93;77.37
10135;BME280;5107;48.850;8.924;2023-04-22T04:33:49;96155.13;;;10.86;78.19
10135;BME280;5107;48.850;8.924;2023-04-22T04:36:14;96151.31;;;10.74;77.53
10135;BME280;5107;48.850;8.924;2023-04-22T04:38:40;96155.84;;;10.80;76.43
10135;BME280;5107;48.850;8.924;2023-04-22T04:41:05;96158.50;;;10.65;77.20
10135;BME280;5107;48.850;8.924;2023-04-22T04:43:33;96156.50;;;10.67;77.04
10135;BME280;5107;48.850;8.924;2023-04-22T04:45:59;96158.69;;;10.78;76.80
10135;BME280;5107;48.850;8.924;2023-04-22T04:48:25;96162.66;;;10.74;78.09
10135;BME280;5107;48.850;8.924;2023-04-22T04:50:51;96154.63;;;10.61;78.18
10135;BME280;5107;48.850;8.924;2023-04-22T04:53:21;96161.91;;;10.44;79.12
10135;BME280;5107;48.850;8.924;2023-04-22T04:55:46;96152.00;;;10.32;79.92
10135;BME280;5107;48.850;8.924;2023-04-22T04:58:12;96155.13;;;10.20;80.54
10135;BME280;5107;48.850;8.924;2023-04-22T05:00:39;96155.59;;;10.16;80.81
10135;BME280;5107;48.850;8.924;2023-04-22T05:03:08;96155.97;;;10.13;81.63
10135;BME280;5107;48.850;8.924;2023-04-22T05:05:33;96150.53;;;10.14;80.94
10135;BME280;5107;48.850;8.924;2023-04-22T05:07:58;96147.28;;;10.12;81.49
10135;BME280;5107;48.850;8.924;2023-04-22T05:10:24;96150.47;;;10.22;80.23
10135;BME280;5107;48.850;8.924;2023-04-22T05:12:49;96154.06;;;10.65;76.49
10135;BME280;5107;48.850;8.924;2023-04-22T05:15:15;96156.50;;;10.67;76.09
10135;BME280;5107;48.850;8.924;2023-04-22T05:17:41;96153.88;;;10.67;76.46
10135;BME280;5107;48.850;8.924;2023-04-22T05:20:06;96157.22;;;10.76;76.58
10135;BME280;5107;48.850;8.924;2023-04-22T05:22:33;96156.75;;;10.87;76.09
10135;BME280;5107;48.850;8.924;2023-04-22T05:24:59;96158.56;;;10.86;75.93
10135;BME280;5107;48.850;8.924;2023-04-22T05:27:24;96165.19;;;10.82;75.82
10135;BME280;5107;48.850;8.924;2023-04-22T05:29:50;96162.69;;;10.59;77.59
10135;BME280;5107;48.850;8.924;2023-04-22T05:32:15;96159.88;;;10.46;78.12
10135;BME280;5107;48.850;8.924;2023-04-22T05:34:40;96159.16;;;10.52;78.47
10135;BME280;5107;48.850;8.924;2023-04-22T05:37:06;96159.50;;;10.64;78.06
10135;BME280;5107;48.850;8.924;2023-04-22T05:39:32;96159.84;;;10.76;78.06
10135;BME280;5107;48.850;8.924;2023-04-22T05:41:57;96166.28;;;10.88;78.34
10135;BME280;5107;48.850;8.924;2023-04-22T05:44:23;96157.97;;;11.06;77.92
10135;BME280;5107;48.850;8.924;2023-04-22T05:46:48;96156.47;;;11.18;77.76
10135;BME280;5107;48.850;8.924;2023-04-22T05:49:14;96149.59;;;11.38;76.87
10135;BME280;5107;48.850;8.924;2023-04-22T05:51:39;96153.28;;;11.44;76.56
10135;BME280;5107;48.850;8.924;2023-04-22T05:54:04;96167.16;;;11.52;76.93
10135;BME280;5107;48.850;8.924;2023-04-22T05:56:30;96165.25;;;11.67;76.30
10135;BME280;5107;48.850;8.924;2023-04-22T05:58:55;96159.69;;;11.77;76.08
10135;BME280;5107;48.850;8.924;2023-04-22T06:01:21;96155.56;;;11.96;75.63
10135;BME280;5107;48.850;8.924;2023-04-22T06:03:46;96160.75;;;12.10;75.16
10135;BME280;5107;48.850;8.924;2023-04-22T06:06:11;96156.66;;;12.08;75.30
10135;BME280;5107;48.850;8.924;2023-04-22T06:08:37;96168.13;;;12.22;75.38
10135;BME280;5107;48.850;8.924;2023-04-22T06:11:02;96172.44;;;12.29;74.81
10135;BME280;5107;48.850;8.924;2023-04-22T06:13:27;96171.03;;;12.33;74.48
10135;BME280;5107;48.850;8.924;2023-04-22T06:15:53;96170.41;;;12.31;74.37
10135;BME280;5107;48.850;8.924;2023-04-22T06:18:18;96172.88;;;12.39;74.28
10135;BME280;5107;48.850;8.924;2023-04-22T06:20:44;96169.69;;;12.44;74.51
10135;BME280;5107;48.850;8.924;2023-04-22T06:23:09;96180.03;;;12.45;73.71
10135;BME280;5107;48.850;8.924;2023-04-22T06:25:34;96182.53;;;12.53;73.54
10135;BME280;5107;48.850;8.924;2023-04-22T06:28:00;96175.34;;;12.47;72.97
10135;BME280;5107;48.850;8.924;2023-04-22T06:30:26;96182.28;;;12.48;73.48
10135;BME280;5107;48.850;8.924;2023-04-22T06:32:52;96178.00;;;12.47;73.48
10135;BME280;5107;48.850;8.924;2023-04-22T06:35:19;96181.91;;;12.51;73.61
10135;BME280;5107;48.850;8.924;2023-04-22T06:37:45;96177.44;;;12.52;73.24
10135;BME280;5107;48.850;8.924;2023-04-22T06:40:12;96174.00;;;12.58;73.81
10135;BME280;5107;48.850;8.924;2023-04-22T06:42:38;96177.47;;;12.65;74.06
10135;BME280;5107;48.850;8.924;2023-04-22T06:45:03;96175.69;;;12.72;73.45
10135;BME280;5107;48.850;8.924;2023-04-22T06:47:29;96181.06;;;12.92;72.65
10135;BME280;5107;48.850;8.924;2023-04-22T06:49:54;96183.91;;;12.90;72.75
10135;BME280;5107;48.850;8.924;2023-04-22T06:52:20;96178.66;;;12.97;73.78
10135;BME280;5107;48.850;8.924;2023-04-22T06:54:46;96186.78;;;13.02;72.16
10135;BME280;5107;48.850;8.924;2023-04-22T06:57:11;96178.69;;;13.10;72.03
10135;BME280;5107;48.850;8.924;2023-04-22T06:59:36;96179.19;;;13.27;71.68
10135;BME280;5107;48.850;8.924;2023-04-22T07:02:02;96185.75;;;13.64;70.07
10135;BME280;5107;48.850;8.924;2023-04-22T07:04:27;96180.88;;;13.67;68.96
10135;BME280;5107;48.850;8.924;2023-04-22T07:06:55;96170.28;;;13.54;69.12
10135;BME280;5107;48.850;8.924;2023-04-22T07:09:20;96169.91;;;13.64;69.61
10135;BME280;5107;48.850;8.924;2023-04-22T07:11:46;96162.75;;;13.45;68.76
10135;BME280;5107;48.850;8.924;2023-04-22T07:14:11;96168.84;;;13.45;68.81
10135;BME280;5107;48.850;8.924;2023-04-22T07:16:37;96167.22;;;13.51;68.44
10135;BME280;5107;48.850;8.924;2023-04-22T07:19:03;96162.75;;;13.58;67.40
10135;BME280;5107;48.850;8.924;2023-04-22T07:21:30;96166.84;;;13.67;67.71
10135;BME280;5107;48.850;8.924;2023-04-22T07:23:56;96160.97;;;13.72;66.55
10135;BME280;5107;48.850;8.924;2023-04-22T07:26:22;96167.25;;;13.77;67.25
10135;BME280;5107;48.850;8.924;2023-04-22T07:28:47;96167.88;;;13.86;66.14
10135;BME280;5107;48.850;8.924;2023-04-22T07:31:13;96162.97;;;13.83;65.74
10135;BME280;5107;48.850;8.924;2023-04-22T07:33:38;96161.13;;;13.90;65.58
10135;BME280;5107;48.850;8.924;2023-04-22T07:36:04;96160.94;;;13.91;65.59
10135;BME280;5107;48.850;8.924;2023-04-22T07:38:29;96169.50;;;13.93;65.37
10135;BME280;5107;48.850;8.924;2023-04-22T07:40:55;96169.47;;;14.06;65.78
10135;BME280;5107;48.850;8.924;2023-04-22T07:43:20;96175.78;;;14.12;65.77
10135;BME280;5107;48.850;8.924;2023-04-22T07:45:45;96171.06;;;14.34;66.21
10135;BME280;5107;48.850;8.924;2023-04-22T07:48:11;96172.69;;;14.35;65.44
10135;BME280;5107;48.850;8.924;2023-04-22T07:50:36;96176.78;;;14.37;66.19
10135;BME280;5107;48.850;8.924;2023-04-22T07:53:01;96183.69;;;14.32;66.16
10135;BME280;5107;48.850;8.924;2023-04-22T07:55:27;96179.25;;;14.39;66.96
10135;BME280;5107;48.850;8.924;2023-04-22T07:57:52;96189.41;;;14.42;65.92
10135;BME280;5107;48.850;8.924;2023-04-22T08:00:17;96185.72;;;14.50;65.62
10135;BME280;5107;48.850;8.924;2023-04-22T08:02:43;96181.25;;;14.50;63.25
10135;BME280;5107;48.850;8.924;2023-04-22T08:05:08;96182.03;;;14.57;62.39
10135;BME280;5107;48.850;8.924;2023-04-22T08:07:34;96181.44;;;14.62;61.74
10135;BME280;5107;48.850;8.924;2023-04-22T08:09:59;96177.50;;;14.77;61.59
10135;BME280;5107;48.850;8.924;2023-04-22T08:12:25;96176.97;;;15.07;60.45
10135;BME280;5107;48.850;8.924;2023-04-22T08:14:50;96173.69;;;15.56;59.34
10135;BME280;5107;48.850;8.924;2023-04-22T08:17:16;96175.59;;;15.99;57.79
10135;BME280;5107;48.850;8.924;2023-04-22T08:19:45;96170.31;;;16.42;58.72
10135;BME280;5107;48.850;8.924;2023-04-22T08:22:11;96177.53;;;16.78;57.65
10135;BME280;5107;48.850;8.924;2023-04-22T08:24:37;96174.28;;;16.76;56.67
10135;BME280;5107;48.850;8.924;2023-04-22T08:27:03;96179.25;;;16.90;55.46
10135;BME280;5107;48.850;8.924;2023-04-22T08:29:28;96173.03;;;16.78;54.26
10135;BME280;5107;48.850;8.924;2023-04-22T08:31:54;96165.19;;;17.01;53.56
10135;BME280;5107;48.850;8.924;2023-04-22T08:34:19;96169.78;;;17.24;52.33
10135;BME280;5107;48.850;8.924;2023-04-22T08:36:45;96171.53;;;17.49;52.28
10135;BME280;5107;48.850;8.924;2023-04-22T08:39:11;96174.88;;;17.74;50.68
10135;BME280;5107;48.850;8.924;2023-04-22T08:41:37;96168.19;;;17.95;50.16
10135;BME280;5107;48.850;8.924;2023-04-22T08:44:03;96167.13;;;17.72;49.63
10135;BME280;5107;48.850;8.924;2023-04-22T08:46:29;96165.97;;;17.92;48.55
10135;BME280;5107;48.850;8.924;2023-04-22T08:48:55;96167.31;;;18.24;48.92
10135;BME280;5107;48.850;8.924;2023-04-22T08:51:27;96169.97;;;18.47;48.24
10135;BME280;5107;48.850;8.924;2023-04-22T08:53:52;96160.94;;;18.60;47.52
10135;BME280;5107;48.850;8.924;2023-04-22T08:56:18;96167.41;;;18.52;44.56
10135;BME280;5107;48.850;8.924;2023-04-22T08:58:44;96165.31;;;18.54;46.42
10135;BME280;5107;48.850;8.924;2023-04-22T09:01:10;96171.34;;;18.85;45.30
10135;BME280;5107;48.850;8.924;2023-04-22T09:03:40;96164.03;;;19.32;44.99
10135;BME280;5107;48.850;8.924;2023-04-22T09:06:06;96170.78;;;19.51;44.43
10135;BME280;5107;48.850;8.924;2023-04-22T09:08:34;96162.38;;;19.03;44.09
10135;BME280;5107;48.850;8.924;2023-04-22T09:11:00;96158.31;;;19.00;44.09
10135;BME280;5107;48.850;8.924;2023-04-22T09:13:26;96163.69;;;18.88;43.25
10135;BME280;5107;48.850;8.924;2023-04-22T09:15:51;96154.72;;;19.06;43.36
10135;BME280;5107;48.850;8.924;2023-04-22T09:18:18;96154.72;;;18.94;44.23
10135;BME280;5107;48.850;8.924;2023-04-22T09:20:45;96149.88;;;18.91;43.35
10135;BME280;5107;48.850;8.924;2023-04-22T09:23:12;96150.69;;;18.92;42.35
10135;BME280;5107;48.850;8.924;2023-04-22T09:25:37;96147.97;;;19.15;42.31
10135;BME280;5107;48.850;8.924;2023-04-22T09:28:03;96151.56;;;19.09;42.16
10135;BME280;5107;48.850;8.924;2023-04-22T09:30:33;96144.72;;;19.13;41.74
10135;BME280;5107;48.850;8.924;2023-04-22T09:33:04;96148.50;;;19.57;42.21
10135;BME280;5107;48.850;8.924;2023-04-22T09:35:31;96147.72;;;19.74;42.77
10135;BME280;5107;48.850;8.924;2023-04-22T09:37:58;96139.16;;;19.88;42.40
10135;BME280;5107;48.850;8.924;2023-04-22T09:40:24;96146.75;;;20.47;43.04
10135;BME280;5107;48.850;8.924;2023-04-22T09:42:54;96149.84;;;20.38;43.27
10135;BME280;5107;48.850;8.924;2023-04-22T09:45:40;96142.38;;;20.24;42.06
10135;BME280;5107;48.850;8.924;2023-04-22T09:48:13;96137.50;;;20.21;43.33
10135;BME280;5107;48.850;8.924;2023-04-22T09:50:42;96140.69;;;20.73;43.75
10135;BME280;5107;48.850;8.924;2023-04-22T09:53:10;96127.06;;;21.18;43.00
10135;BME280;5107;48.850;8.924;2023-04-22T09:55:39;96131.44;;;21.24;42.66
10135;BME280;5107;48.850;8.924;2023-04-22T09:58:07;96128.53;;;21.26;42.96
10135;BME280;5107;48.850;8.924;2023-04-22T10:00:34;96128.78;;;21.24;42.08
10135;BME280;5107;48.850;8.924;2023-04-22T10:02:59;96120.78;;;21.83;42.46
10135;BME280;5107;48.850;8.924;2023-04-22T10:05:25;96119.19;;;21.87;41.55
10135;BME280;5107;48.850;8.924;2023-04-22T10:07:53;96122.09;;;21.85;40.82
10135;BME280;5107;48.850;8.924;2023-04-22T10:10:19;96124.50;;;22.09;40.63
10135;BME280;5107;48.850;8.924;2023-04-22T10:12:46;96116.41;;;22.46;40.22
10135;BME280;5107;48.850;8.924;2023-04-22T10:15:12;96115.78;;;22.28;39.65
10135;BME280;5107;48.850;8.924;2023-04-22T10:17:38;96128.25;;;22.50;39.63
10135;BME280;5107;48.850;8.924;2023-04-22T10:20:07;96118.28;;;22.40;37.30
10135;BME280;5107;48.850;8.924;2023-04-22T10:22:38;96124.38;;;22.36;36.71
10135;BME280;5107;48.850;8.924;2023-04-22T10:25:04;96120.47;;;22.53;36.44
10135;BME280;5107;48.850;8.924;2023-04-22T10:27:30;96124.88;;;22.27;36.48
10135;BME280;5107;48.850;8.924;2023-04-22T10:29:55;96121.13;;;21.96;36.34
10135;BME280;5107;48.850;8.924;2023-04-22T10:34:48;96115.75;;;21.91;37.31
10135;BME280;5107;48.850;8.924;2023-04-22T10:37:17;96103.47;;;22.32;37.89
10135;BME280;5107;48.850;8.924;2023-04-22T10:42:32;96099.56;;;22.50;36.23
10135;BME280;5107;48.850;8.924;2023-04-22T10:45:02;96105.34;;;21.68;37.69
10135;BME280;5107;48.850;8.924;2023-04-22T10:47:33;96103.06;;;21.82;37.12
10135;BME280;5107;48.850;8.924;2023-04-22T10:50:15;96104.13;;;22.08;38.84
10135;BME280;5107;48.850;8.924;2023-04-22T10:52:44;96099.91;;;22.69;37.90
10135;BME280;5107;48.850;8.924;2023-04-22T10:55:10;96095.22;;;22.96;35.98
10135;BME280;5107;48.850;8.924;2023-04-22T10:57:40;96092.75;;;22.38;35.63
10135;BME280;5107;48.850;8.924;2023-04-22T11:02:45;96096.41;;;22.63;36.66
10135;BME280;5107;48.850;8.924;2023-04-22T11:05:22;96094.78;;;22.15;37.52
10135;BME280;5107;48.850;8.924;2023-04-22T11:07:50;96101.22;;;22.19;36.86
10135;BME280;5107;48.850;8.924;2023-04-22T11:13:02;96097.41;;;22.10;37.39
10135;BME280;5107;48.850;8.924;2023-04-22T11:15:29;96093.88;;;22.47;36.18
10135;BME280;5107;48.850;8.924;2023-04-22T11:17:55;96094.19;;;22.50;37.16
10135;BME280;5107;48.850;8.924;2023-04-22T11:20:22;96082.84;;;22.38;36.56
10135;BME280;5107;48.850;8.924;2023-04-22T11:22:50;96083.16;;;22.42;35.34
10135;BME280;5107;48.850;8.924;2023-04-22T11:25:16;96081.25;;;22.89;34.83
10135;BME280;5107;48.850;8.924;2023-04-22T11:27:42;96072.69;;;22.92;35.25
10135;BME280;5107;48.850;8.924;2023-04-22T11:32:35;96089.22;;;22.27;36.60
10135;BME280;5107;48.850;8.924;2023-04-22T11:35:05;96090.13;;;22.43;36.69
10135;BME280;5107;48.850;8.924;2023-04-22T11:37:48;96089.03;;;22.02;37.24
10135;BME280;5107;48.850;8.924;2023-04-22T11:40:19;96088.69;;;21.61;36.95
10135;BME280;5107;48.850;8.924;2023-04-22T11:42:46;96087.38;;;21.64;37.87
10135;BME280;5107;48.850;8.924;2023-04-22T11:45:12;96091.13;;;21.63;39.16
10135;BME280;5107;48.850;8.924;2023-04-22T11:47:38;96095.38;;;21.58;38.24
10135;BME280;5107;48.850;8.924;2023-04-22T11:50:07;96094.00;;;21.56;39.01
10135;BME280;5107;48.850;8.924;2023-04-22T11:52:50;96081.69;;;21.28;38.73
10135;BME280;5107;48.850;8.924;2023-04-22T11:55:29;96087.03;;;21.87;38.85
10135;BME280;5107;48.850;8.924;2023-04-22T11:58:05;96080.88;;;22.23;37.65
10135;BME280;5107;48.850;8.924;2023-04-22T12:00:52;96092.91;;;22.63;39.41
10135;BME280;5107;48.850;8.924;2023-04-22T12:03:23;96092.84;;;22.06;38.22
10135;BME280;5107;48.850;8.924;2023-04-22T12:08:21;96091.94;;;21.36;36.93
10135;BME280;5107;48.850;8.924;2023-04-22T12:10:57;96111.50;;;21.15;41.32
10135;BME280;5107;48.850;8.924;2023-04-22T12:13:28;96102.97;;;21.72;34.98
10135;BME280;5107;48.850;8.924;2023-04-22T12:15:57;96106.47;;;21.99;34.82
10135;BME280;5107;48.850;8.924;2023-04-22T12:20:59;96091.81;;;21.85;36.31
10135;BME280;5107;48.850;8.924;2023-04-22T12:23:25;96106.81;;;21.81;42.93
10135;BME280;5107;48.850;8.924;2023-04-22T12:25:50;96109.41;;;22.03;43.24
10135;BME280;5107;48.850;8.924;2023-04-22T12:28:15;96113.19;;;22.44;39.19
10135;BME280;5107;48.850;8.924;2023-04-22T12:30:41;96114.59;;;22.09;38.24
10135;BME280;5107;48.850;8.924;2023-04-22T12:33:06;96110.06;;;22.62;37.33
10135;BME280;5107;48.850;8.924;2023-04-22T12:35:32;96098.72;;;23.02;40.71
10135;BME280;5107;48.850;8.924;2023-04-22T12:37:57;96098.50;;;23.08;40.89
10135;BME280;5107;48.850;8.924;2023-04-22T12:40:23;96108.66;;;23.01;41.72
10135;BME280;5107;48.850;8.924;2023-04-22T12:42:48;96102.19;;;22.92;41.73
10135;BME280;5107;48.850;8.924;2023-04-22T12:45:13;96108.94;;;23.05;42.28
10135;BME280;5107;48.850;8.924;2023-04-22T12:47:40;96115.03;;;22.85;40.77
10135;BME280;5107;48.850;8.924;2023-04-22T12:50:06;96115.44;;;22.62;41.49
10135;BME280;5107;48.850;8.924;2023-04-22T12:52:33;96119.56;;;22.75;41.49
10135;BME280;5107;48.850;8.924;2023-04-22T12:54:58;96111.13;;;22.56;41.54
10135;BME280;5107;48.850;8.924;2023-04-22T12:57:24;96116.53;;;22.66;41.09
10135;BME280;5107;48.850;8.924;2023-04-22T12:59:50;96122.81;;;22.87;41.32
10135;BME280;5107;48.850;8.924;2023-04-22T13:02:15;96123.13;;;22.95;39.88
10135;BME280;5107;48.850;8.924;2023-04-22T13:04:41;96122.06;;;22.96;40.11
10135;BME280;5107;48.850;8.924;2023-04-22T13:07:06;96118.09;;;23.09;39.54
10135;BME280;5107;48.850;8.924;2023-04-22T13:09:31;96117.34;;;23.29;39.09
10135;BME280;5107;48.850;8.924;2023-04-22T13:11:57;96117.28;;;23.14;38.83
10135;BME280;5107;48.850;8.924;2023-04-22T13:14:22;96125.88;;;23.11;39.96
10135;BME280;5107;48.850;8.924;2023-04-22T13:16:48;96118.94;;;23.30;40.42
10135;BME280;5107;48.850;8.924;2023-04-22T13:19:13;96108.22;;;23.30;38.77
10135;BME280;5107;48.850;8.924;2023-04-22T13:21:39;96110.84;;;23.10;38.38
10135;BME280;5107;48.850;8.924;2023-04-22T13:24:04;96105.16;;;22.96;38.76